< Typhoon 197417 1974 Season Typhoon 197419 >
Typhoon 197418 (SHIRLEY)
General InformationTrack Information on Google Maps || Disaster Info.ResourceGoogle EarthGE AnimationAtom FeedGeoJSON
Detalied Best Track (Time Zone = UTC)
Year Month Day Hour Lat. Long. Pressure (hPa) Wind (kt) Class Image Chart
1974 9 2 00 23.8 122.6 1002 0 2 -- Chart
1974 9 2 06 23.8 124.0 1000 0 2 -- Chart
1974 9 2 12 24.0 125.6 1002 0 2 -- Chart
1974 9 2 18 24.0 127.0 1002 0 2 -- Chart
1974 9 3 00 24.0 128.0 1002 0 2 -- Chart
1974 9 3 06 24.0 129.0 1002 0 2 -- Chart
1974 9 3 12 24.2 129.8 1002 0 2 -- Chart
1974 9 3 18 24.4 130.3 1002 0 2 -- Chart
1974 9 4 00 24.6 130.7 1002 0 2 -- Chart
1974 9 4 06 24.8 130.9 998 0 2 -- Chart
1974 9 4 12 25.1 131.0 996 0 2 -- Chart
1974 9 4 18 25.5 131.0 990 0 9 -- Chart
1974 9 5 00 26.0 131.3 988 0 9 -- Chart
1974 9 5 06 26.2 131.3 985 0 9 -- Chart
1974 9 5 12 26.4 131.3 980 0 9 -- Chart
1974 9 5 18 26.6 130.4 980 0 9 -- Chart
1974 9 6 00 26.8 129.6 980 0 9 -- Chart
1974 9 6 06 27.2 128.8 980 0 9 -- Chart
1974 9 6 12 27.4 128.4 975 0 9 -- Chart
1974 9 6 18 27.6 128.1 975 0 9 -- Chart
1974 9 7 00 28.2 127.7 975 0 9 -- Chart
1974 9 7 06 28.5 127.7 970 0 9 -- Chart
1974 9 7 12 28.8 127.6 975 0 9 -- Chart
1974 9 7 18 29.2 127.6 975 0 9 -- Chart
1974 9 8 00 29.8 128.3 980 0 9 -- Chart
1974 9 8 06 30.6 129.3 980 0 9 -- Chart
1974 9 8 12 31.5 130.5 984 0 9 -- Chart
1974 9 8 18 33.0 132.0 996 0 9 -- Chart
1974 9 9 00 34.0 135.0 1002 0 6 -- Chart
1974 9 9 06 35.8 137.8 1003 0 6 -- Chart
1974 9 9 12 39.1 140.7 1004 0 6 -- Chart
1974 9 9 18 39.9 143.7 1004 0 6 -- Chart
1974 9 10 00 42.0 146.0 1004 0 6 -- Chart
1974 9 10 06 43.0 148.0 1004 0 6 -- Chart
1974 9 10 12 44.0 149.1 1004 0 6 -- Chart
1974 9 10 18 44.0 151.0 1004 0 6 -- Chart
1974 9 11 00 44.0 153.0 1004 0 6 -- Chart
1974 9 11 06 44.8 155.0 1002 0 6 -- Chart
1974 9 11 12 45.0 159.0 1000 0 6 -- Chart
Japan Meteorological Agency Best Track Data | Correction Date : 1989-06-01
< Typhoon 197417 1974 Season Typhoon 197419 >

Help